createdAt,value
2023-03-29T00:02:30.557Z,6.40
2023-03-29T00:05:04.326Z,6.50
2023-03-29T00:07:33.591Z,6.60
2023-03-29T00:10:02.015Z,6.60
2023-03-29T00:12:29.020Z,6.60
2023-03-29T00:14:56.000Z,6.60
2023-03-29T00:17:23.003Z,6.60
2023-03-29T00:19:49.969Z,6.60
2023-03-29T00:22:16.761Z,6.60
2023-03-29T00:24:43.522Z,6.60
2023-03-29T00:27:10.288Z,6.60
2023-03-29T00:29:37.313Z,6.60
2023-03-29T00:32:04.327Z,6.60
2023-03-29T00:34:31.089Z,6.50
2023-03-29T00:36:58.776Z,6.40
2023-03-29T00:39:26.453Z,6.40
2023-03-29T00:41:53.925Z,6.40
2023-03-29T00:44:55.778Z,6.30
2023-03-29T00:47:44.327Z,6.30
2023-03-29T00:50:16.428Z,6.30
2023-03-29T00:52:48.650Z,6.30
2023-03-29T00:55:20.037Z,6.30
2023-03-29T00:57:47.382Z,6.30
2023-03-29T01:00:20.916Z,6.30
2023-03-29T01:02:54.453Z,6.30
2023-03-29T01:05:47.753Z,6.20
2023-03-29T01:08:41.949Z,6.30
2023-03-29T01:11:22.211Z,6.30
2023-03-29T01:14:28.449Z,6.20
2023-03-29T01:16:55.556Z,6.10
2023-03-29T01:19:28.077Z,6.10
2023-03-29T01:22:31.012Z,6.10
2023-03-29T01:25:00.998Z,6.00
2023-03-29T01:27:52.530Z,5.90
2023-03-29T01:30:30.518Z,6.00
2023-03-29T01:33:04.389Z,5.90
2023-03-29T01:35:44.711Z,5.80
2023-03-29T01:38:43.203Z,5.80
2023-03-29T01:41:10.945Z,5.90
2023-03-29T01:43:55.173Z,6.00
2023-03-29T01:46:31.299Z,6.00
2023-03-29T01:49:21.843Z,6.00
2023-03-29T01:51:59.215Z,6.10
2023-03-29T01:54:33.372Z,6.00
2023-03-29T01:57:04.754Z,5.90
2023-03-29T01:59:35.049Z,5.90
2023-03-29T02:02:05.597Z,5.80
2023-03-29T02:04:37.142Z,5.90
2023-03-29T02:07:07.219Z,5.90
2023-03-29T02:09:37.213Z,5.90
2023-03-29T02:12:06.543Z,5.90
2023-03-29T02:14:33.404Z,5.90
2023-03-29T02:17:19.996Z,5.80
2023-03-29T02:19:51.428Z,5.80
2023-03-29T02:22:37.246Z,5.70
2023-03-29T02:25:08.411Z,5.80
2023-03-29T02:27:37.811Z,5.80
2023-03-29T02:30:07.096Z,5.70
2023-03-29T02:32:42.112Z,5.70
2023-03-29T02:35:14.081Z,5.70
2023-03-29T02:37:46.370Z,5.70
2023-03-29T02:40:14.429Z,5.60
2023-03-29T02:42:44.839Z,5.60
2023-03-29T02:45:16.009Z,5.60
2023-03-29T02:47:46.508Z,5.60
2023-03-29T02:50:13.431Z,5.60
2023-03-29T02:52:46.116Z,5.60
2023-03-29T02:55:17.311Z,5.60
2023-03-29T02:57:44.142Z,5.50
2023-03-29T03:00:12.379Z,5.60
2023-03-29T03:02:39.149Z,5.60
2023-03-29T03:05:06.380Z,5.50
2023-03-29T03:07:33.864Z,5.40
2023-03-29T03:10:00.960Z,5.50
2023-03-29T03:12:27.784Z,5.50
2023-03-29T03:14:54.713Z,5.60
2023-03-29T03:17:23.123Z,5.70
2023-03-29T03:19:53.945Z,5.60
2023-03-29T03:22:20.871Z,5.50
2023-03-29T03:24:49.250Z,5.50
2023-03-29T03:27:16.587Z,5.50
2023-03-29T03:29:44.076Z,5.60
2023-03-29T03:32:12.411Z,5.60
2023-03-29T03:34:39.204Z,5.60
2023-03-29T03:37:05.938Z,5.60
2023-03-29T03:39:33.368Z,5.50
2023-03-29T03:42:00.363Z,5.60
2023-03-29T03:44:27.213Z,5.60
2023-03-29T03:46:54.057Z,5.70
2023-03-29T03:49:21.930Z,5.70
2023-03-29T03:51:49.845Z,5.80
2023-03-29T03:54:18.571Z,5.80
2023-03-29T03:56:45.329Z,5.80
2023-03-29T03:59:12.104Z,5.80
2023-03-29T04:01:43.417Z,5.70
2023-03-29T04:04:17.343Z,5.70
2023-03-29T04:06:44.224Z,5.70
2023-03-29T04:09:11.231Z,5.70
2023-03-29T04:11:38.678Z,5.80
2023-03-29T04:14:05.431Z,5.80
2023-03-29T04:16:32.165Z,5.90
2023-03-29T04:18:59.000Z,5.80
2023-03-29T04:21:26.295Z,5.90
2023-03-29T04:23:53.172Z,6.00
2023-03-29T04:26:20.026Z,6.10
2023-03-29T04:28:46.750Z,6.10
2023-03-29T04:31:14.578Z,6.20
2023-03-29T04:33:41.407Z,6.20
2023-03-29T04:36:09.354Z,6.30
2023-03-29T04:38:36.170Z,6.30
2023-03-29T04:41:05.029Z,6.40
2023-03-29T04:43:31.845Z,6.40
2023-03-29T04:45:58.725Z,6.40
2023-03-29T04:48:26.461Z,6.40
2023-03-29T04:50:54.511Z,6.40
2023-03-29T04:53:22.324Z,6.40
2023-03-29T04:55:49.145Z,6.40
2023-03-29T04:58:15.938Z,6.50
2023-03-29T05:00:43.062Z,6.50
2023-03-29T05:03:13.514Z,6.60
2023-03-29T05:05:41.589Z,6.60
2023-03-29T05:08:09.511Z,6.70
2023-03-29T05:10:37.066Z,6.80
2023-03-29T05:13:04.135Z,6.80
2023-03-29T05:15:31.416Z,6.90
2023-03-29T05:17:58.986Z,6.90
2023-03-29T05:20:25.865Z,6.90
2023-03-29T05:22:53.308Z,7.00
2023-03-29T05:25:20.595Z,7.00
2023-03-29T05:27:47.465Z,7.10
2023-03-29T05:30:15.381Z,7.10
2023-03-29T05:32:42.786Z,7.10
2023-03-29T05:35:11.710Z,7.20
2023-03-29T05:37:39.103Z,7.10
2023-03-29T05:40:09.089Z,7.20
2023-03-29T05:42:37.924Z,7.20
2023-03-29T05:45:06.448Z,7.30
2023-03-29T05:47:33.313Z,7.40
2023-03-29T05:50:00.079Z,7.40
2023-03-29T05:52:27.391Z,7.40
2023-03-29T05:54:54.139Z,7.50
2023-03-29T05:57:22.141Z,7.50
2023-03-29T05:59:48.911Z,7.60
2023-03-29T06:02:16.895Z,7.60
2023-03-29T06:04:43.824Z,7.70
2023-03-29T06:07:12.573Z,7.70
2023-03-29T06:09:39.844Z,7.80
2023-03-29T06:12:08.068Z,7.80
2023-03-29T06:14:35.778Z,7.80
2023-03-29T06:17:02.777Z,7.80
2023-03-29T06:19:29.585Z,7.80
2023-03-29T06:21:56.369Z,7.80
2023-03-29T06:24:25.034Z,7.90
2023-03-29T06:26:52.418Z,8.00
2023-03-29T06:29:19.326Z,8.10
2023-03-29T06:31:46.375Z,8.30
2023-03-29T06:34:13.812Z,8.40
2023-03-29T06:36:40.528Z,8.40
2023-03-29T06:39:07.371Z,8.60
2023-03-29T06:41:34.468Z,8.70
2023-03-29T06:44:01.200Z,8.80
2023-03-29T06:46:28.043Z,8.90
2023-03-29T06:48:54.910Z,9.00
2023-03-29T06:51:23.429Z,9.10
2023-03-29T06:53:50.388Z,9.20
2023-03-29T06:56:17.673Z,9.20
2023-03-29T06:58:45.074Z,9.20
2023-03-29T07:01:11.840Z,9.30
2023-03-29T07:03:39.409Z,9.30
2023-03-29T07:06:10.051Z,9.30
2023-03-29T07:08:43.493Z,9.30
2023-03-29T07:11:14.769Z,9.30
2023-03-29T07:13:43.077Z,9.30
2023-03-29T07:16:14.054Z,9.40
2023-03-29T07:18:43.061Z,9.60
2023-03-29T07:21:12.387Z,9.60
2023-03-29T07:23:39.749Z,9.60
2023-03-29T07:26:10.490Z,9.60
2023-03-29T07:28:37.879Z,9.60
2023-03-29T07:31:06.975Z,9.70
2023-03-29T07:33:34.587Z,9.80
2023-03-29T07:36:02.027Z,9.90
2023-03-29T07:38:29.154Z,10.00
2023-03-29T07:40:56.220Z,10.10
2023-03-29T07:43:24.116Z,10.10
2023-03-29T07:45:52.727Z,10.20
2023-03-29T07:48:19.693Z,10.20
2023-03-29T07:50:46.753Z,10.20
2023-03-29T07:53:13.643Z,10.20
2023-03-29T07:55:47.579Z,10.30
2023-03-29T07:58:14.863Z,10.30
2023-03-29T08:00:41.966Z,10.40
2023-03-29T08:03:13.270Z,10.40
2023-03-29T08:05:41.994Z,10.50
2023-03-29T08:08:09.875Z,10.60
2023-03-29T08:10:39.091Z,10.70
2023-03-29T08:13:08.424Z,10.80
2023-03-29T08:15:40.034Z,10.80
2023-03-29T08:18:08.027Z,10.80
2023-03-29T08:20:35.211Z,10.90
2023-03-29T08:23:02.128Z,11.00
2023-03-29T08:25:28.921Z,11.10
2023-03-29T08:27:55.694Z,11.30
2023-03-29T08:30:22.494Z,11.60
2023-03-29T08:32:52.180Z,11.80
2023-03-29T08:35:20.785Z,12.10
2023-03-29T08:37:48.174Z,12.40
2023-03-29T08:40:24.717Z,12.70
2023-03-29T08:43:07.080Z,12.70
2023-03-29T08:45:37.094Z,12.80
2023-03-29T08:48:28.522Z,12.50
2023-03-29T08:51:00.620Z,12.80
2023-03-29T08:53:38.449Z,12.80
2023-03-29T08:56:12.053Z,12.80
2023-03-29T08:58:39.204Z,12.70
2023-03-29T09:01:09.277Z,12.60
2023-03-29T09:03:46.358Z,12.70
2023-03-29T09:06:13.680Z,12.70
2023-03-29T09:08:46.860Z,12.50
2023-03-29T09:11:28.551Z,12.40
2023-03-29T09:14:05.593Z,12.30
2023-03-29T09:16:41.259Z,12.40
2023-03-29T09:19:31.461Z,12.30
2023-03-29T09:22:17.244Z,12.30
2023-03-29T09:25:13.397Z,12.40
2023-03-29T09:28:09.569Z,12.50
2023-03-29T09:30:47.562Z,12.60
2023-03-29T09:33:42.575Z,12.60
2023-03-29T09:36:23.313Z,12.70
2023-03-29T09:38:54.383Z,12.80
2023-03-29T09:41:26.539Z,12.90
2023-03-29T09:43:55.868Z,13.10
2023-03-29T09:46:48.225Z,13.30
2023-03-29T09:49:21.350Z,13.50
2023-03-29T09:51:49.934Z,13.40
2023-03-29T09:54:17.020Z,13.60
2023-03-29T09:56:43.932Z,13.70
2023-03-29T09:59:12.540Z,13.80
2023-03-29T10:01:42.380Z,13.80
2023-03-29T10:04:11.269Z,13.90
2023-03-29T10:06:43.401Z,13.70
2023-03-29T10:09:21.992Z,13.80
2023-03-29T10:11:53.596Z,13.70
2023-03-29T10:14:31.875Z,13.70
2023-03-29T10:16:59.139Z,13.70
2023-03-29T10:19:37.439Z,13.80
2023-03-29T10:22:07.648Z,13.90
2023-03-29T10:24:34.478Z,13.90
2023-03-29T10:27:10.881Z,13.90
2023-03-29T10:29:43.066Z,13.80
2023-03-29T10:32:33.474Z,13.90
2023-03-29T10:35:12.374Z,13.90
2023-03-29T10:37:50.218Z,14.00
2023-03-29T10:40:25.804Z,14.20
2023-03-29T10:42:57.561Z,14.40
2023-03-29T10:45:34.813Z,14.40
2023-03-29T10:48:04.852Z,14.50
2023-03-29T10:50:38.127Z,14.60
2023-03-29T10:53:17.784Z,14.70
2023-03-29T10:56:11.209Z,14.90
2023-03-29T10:58:56.225Z,14.90
2023-03-29T11:01:43.094Z,14.90
2023-03-29T11:04:23.050Z,14.90
2023-03-29T11:06:58.864Z,14.80
2023-03-29T11:10:06.339Z,14.70
2023-03-29T11:12:44.141Z,14.80
2023-03-29T11:15:20.057Z,14.60
2023-03-29T11:17:51.054Z,14.60
2023-03-29T11:20:29.530Z,14.30
2023-03-29T11:23:48.534Z,14.20
2023-03-29T11:26:59.047Z,14.20
2023-03-29T11:29:33.576Z,14.20
2023-03-29T11:32:07.332Z,14.20
2023-03-29T11:34:47.275Z,14.20
2023-03-29T11:37:14.443Z,14.20
2023-03-29T11:40:05.703Z,14.40
2023-03-29T11:42:38.069Z,14.50
2023-03-29T11:45:06.105Z,14.60
2023-03-29T11:47:37.705Z,14.70
2023-03-29T11:50:16.957Z,14.70
2023-03-29T11:52:49.078Z,14.80
2023-03-29T11:55:20.054Z,14.80
2023-03-29T11:57:58.013Z,14.80
2023-03-29T12:00:35.262Z,14.80
2023-03-29T12:03:19.936Z,14.90
2023-03-29T12:06:04.445Z,14.80
2023-03-29T12:08:34.182Z,14.90
2023-03-29T12:11:11.971Z,15.00
2023-03-29T12:14:02.424Z,14.90
2023-03-29T12:16:50.007Z,14.80
2023-03-29T12:19:18.869Z,14.80
2023-03-29T12:21:47.112Z,14.90
2023-03-29T12:24:16.859Z,15.10
2023-03-29T12:27:08.387Z,15.20
2023-03-29T12:30:08.681Z,15.20
2023-03-29T12:32:38.484Z,15.30
2023-03-29T12:35:29.609Z,15.30
2023-03-29T12:38:20.795Z,15.30
2023-03-29T12:40:53.346Z,15.20
2023-03-29T12:43:31.458Z,15.10
2023-03-29T12:46:28.856Z,15.00
2023-03-29T12:49:05.734Z,15.00
2023-03-29T12:51:34.874Z,15.00
2023-03-29T12:54:08.599Z,15.20
2023-03-29T12:56:40.259Z,15.20
2023-03-29T12:59:24.389Z,15.30
2023-03-29T13:02:09.798Z,15.30
2023-03-29T13:05:00.331Z,15.20
2023-03-29T13:07:32.056Z,15.30
2023-03-29T13:10:08.836Z,15.40
2023-03-29T13:12:45.778Z,15.60
2023-03-29T13:15:16.714Z,15.70
2023-03-29T13:18:09.685Z,15.80
2023-03-29T13:20:47.891Z,15.80
2023-03-29T13:23:34.796Z,16.00
2023-03-29T13:26:11.414Z,16.10
2023-03-29T13:29:05.237Z,16.20
2023-03-29T13:31:59.693Z,16.20
2023-03-29T13:35:03.670Z,16.40
2023-03-29T13:37:53.246Z,16.30
2023-03-29T13:40:41.914Z,16.10
2023-03-29T13:43:19.848Z,16.10
2023-03-29T13:46:04.727Z,16.10
2023-03-29T13:48:33.731Z,16.10
2023-03-29T13:51:08.126Z,16.10
2023-03-29T13:53:37.379Z,16.20
2023-03-29T13:56:08.149Z,16.40
2023-03-29T13:58:44.903Z,16.50
2023-03-29T14:01:42.606Z,16.70
2023-03-29T14:04:17.458Z,16.70
2023-03-29T14:06:51.731Z,16.60
2023-03-29T14:09:22.006Z,16.50
2023-03-29T14:11:49.394Z,16.30
2023-03-29T14:14:17.851Z,16.30
2023-03-29T14:16:44.789Z,16.20
2023-03-29T14:19:18.296Z,16.00
2023-03-29T14:21:45.941Z,15.90
2023-03-29T14:24:19.883Z,15.90
2023-03-29T14:26:47.811Z,15.80
2023-03-29T14:29:15.918Z,15.80
2023-03-29T14:31:43.017Z,15.70
2023-03-29T14:34:15.784Z,15.70
2023-03-29T14:36:45.608Z,15.70
2023-03-29T14:39:18.715Z,15.70
2023-03-29T14:41:59.108Z,15.80
2023-03-29T14:44:34.705Z,15.70
2023-03-29T14:47:03.378Z,15.70
2023-03-29T14:49:31.739Z,15.70
2023-03-29T14:51:58.989Z,15.60
2023-03-29T14:54:33.787Z,15.60
2023-03-29T14:57:06.503Z,15.50
2023-03-29T14:59:38.558Z,15.20
2023-03-29T15:02:26.504Z,15.00
2023-03-29T15:05:19.962Z,14.90
2023-03-29T15:07:47.498Z,14.80
2023-03-29T15:10:20.746Z,14.70
2023-03-29T15:12:49.154Z,14.70
2023-03-29T15:15:16.274Z,14.80
2023-03-29T15:17:51.954Z,14.70
2023-03-29T15:20:29.076Z,14.60
2023-03-29T15:23:08.614Z,14.60
2023-03-29T15:25:47.728Z,14.60
2023-03-29T15:28:32.565Z,14.70
2023-03-29T15:31:10.166Z,14.90
2023-03-29T15:33:39.348Z,15.00
2023-03-29T15:36:08.271Z,15.00
2023-03-29T15:38:43.882Z,15.00
2023-03-29T15:41:13.356Z,15.00
2023-03-29T15:43:41.395Z,14.90
2023-03-29T15:46:09.993Z,14.90
2023-03-29T15:48:36.769Z,14.90
2023-03-29T15:51:06.364Z,14.90
2023-03-29T15:53:33.737Z,14.70
2023-03-29T15:56:02.660Z,14.70
2023-03-29T15:58:32.146Z,14.70
2023-03-29T16:01:12.011Z,14.70
2023-03-29T16:03:39.731Z,14.60
2023-03-29T16:06:09.965Z,14.40
2023-03-29T16:08:36.689Z,14.50
2023-03-29T16:11:05.064Z,14.50
2023-03-29T16:13:31.836Z,14.50
2023-03-29T16:15:58.638Z,14.50
2023-03-29T16:18:25.408Z,14.50
2023-03-29T16:20:52.440Z,14.60
2023-03-29T16:23:19.139Z,14.50
2023-03-29T16:25:45.876Z,14.40
2023-03-29T16:28:12.999Z,14.50
2023-03-29T16:30:40.342Z,14.40
2023-03-29T16:33:08.731Z,14.40
2023-03-29T16:35:38.543Z,14.30
2023-03-29T16:38:05.966Z,14.30
2023-03-29T16:40:33.353Z,14.20
2023-03-29T16:43:00.649Z,14.20
2023-03-29T16:45:27.813Z,14.20
2023-03-29T16:47:55.624Z,14.20
2023-03-29T16:50:22.553Z,14.20
2023-03-29T16:52:51.451Z,14.10
2023-03-29T16:55:19.166Z,14.20
2023-03-29T16:57:47.260Z,14.20
2023-03-29T17:00:15.991Z,14.20
2023-03-29T17:02:44.332Z,14.10
2023-03-29T17:05:12.614Z,14.00
2023-03-29T17:07:39.739Z,14.10
2023-03-29T17:10:08.305Z,14.00
2023-03-29T17:12:35.381Z,14.00
2023-03-29T17:15:02.726Z,13.90
2023-03-29T17:17:29.552Z,13.80
2023-03-29T17:19:56.736Z,13.70
2023-03-29T17:22:25.174Z,13.60
2023-03-29T17:24:52.128Z,13.60
2023-03-29T17:27:19.170Z,13.60
2023-03-29T17:29:45.918Z,13.50
2023-03-29T17:32:12.598Z,13.40
2023-03-29T17:34:39.365Z,13.40
2023-03-29T17:37:06.141Z,13.40
2023-03-29T17:39:37.198Z,13.40
2023-03-29T17:42:04.837Z,13.40
2023-03-29T17:44:33.349Z,13.40
2023-03-29T17:47:00.937Z,13.40
2023-03-29T17:49:28.062Z,13.30
2023-03-29T17:51:55.091Z,13.30
2023-03-29T17:54:22.076Z,13.30
2023-03-29T17:56:48.920Z,13.30
2023-03-29T17:59:16.429Z,13.10
2023-03-29T18:01:43.426Z,12.90
2023-03-29T18:04:10.305Z,13.00
2023-03-29T18:06:37.178Z,12.90
2023-03-29T18:09:04.648Z,12.90
2023-03-29T18:11:31.650Z,12.80
2023-03-29T18:14:00.713Z,12.80
2023-03-29T18:16:27.932Z,12.70
2023-03-29T18:18:54.943Z,12.70
2023-03-29T18:21:22.034Z,12.80
2023-03-29T18:23:49.958Z,12.80
2023-03-29T18:26:17.560Z,12.90
2023-03-29T18:28:48.530Z,12.80
2023-03-29T18:31:16.049Z,12.70
2023-03-29T18:33:43.366Z,12.60
2023-03-29T18:36:13.276Z,12.40
2023-03-29T18:38:43.146Z,12.40
2023-03-29T18:41:12.110Z,12.50
2023-03-29T18:43:39.905Z,12.40
2023-03-29T18:46:08.064Z,12.40
2023-03-29T18:48:41.899Z,12.40
2023-03-29T18:51:10.741Z,12.40
2023-03-29T18:53:39.276Z,12.40
2023-03-29T18:56:06.654Z,12.40
2023-03-29T18:58:33.919Z,12.40
2023-03-29T19:01:05.395Z,12.40
2023-03-29T19:03:34.486Z,12.40
2023-03-29T19:06:02.087Z,12.30
2023-03-29T19:08:29.156Z,12.20
2023-03-29T19:11:07.298Z,12.20
2023-03-29T19:13:34.537Z,12.10
2023-03-29T19:16:01.755Z,12.10
2023-03-29T19:18:28.934Z,12.10
2023-03-29T19:20:56.193Z,12.10
2023-03-29T19:23:25.969Z,12.10
2023-03-29T19:25:57.994Z,12.00
2023-03-29T19:28:26.015Z,12.00
2023-03-29T19:30:52.948Z,12.00
2023-03-29T19:33:20.088Z,12.00
2023-03-29T19:35:49.378Z,12.00
2023-03-29T19:38:16.187Z,12.00
2023-03-29T19:40:47.117Z,11.90
2023-03-29T19:43:16.928Z,11.90
2023-03-29T19:45:48.876Z,11.90
2023-03-29T19:48:22.260Z,11.90
2023-03-29T19:50:50.694Z,11.90
2023-03-29T19:53:17.610Z,11.90
2023-03-29T19:55:45.460Z,11.80
2023-03-29T19:58:12.950Z,11.80
2023-03-29T20:00:41.766Z,11.90
2023-03-29T20:03:13.977Z,11.90
2023-03-29T20:05:41.123Z,11.90
2023-03-29T20:08:08.861Z,11.90
2023-03-29T20:10:36.046Z,12.00
2023-03-29T20:13:03.170Z,12.10
2023-03-29T20:15:29.951Z,12.10
2023-03-29T20:17:59.465Z,12.20
2023-03-29T20:20:27.204Z,12.10
2023-03-29T20:23:04.721Z,12.00
2023-03-29T20:25:32.627Z,12.00
2023-03-29T20:27:59.682Z,12.00
2023-03-29T20:30:26.823Z,12.00
2023-03-29T20:32:53.688Z,12.00
2023-03-29T20:35:20.671Z,11.90
2023-03-29T20:37:47.449Z,12.00
2023-03-29T20:40:15.769Z,12.00
2023-03-29T20:42:42.620Z,12.00
2023-03-29T20:45:18.295Z,12.10
2023-03-29T20:47:50.434Z,12.00
2023-03-29T20:50:21.348Z,12.10
2023-03-29T20:52:48.224Z,12.10
2023-03-29T20:55:17.060Z,12.10
2023-03-29T20:57:43.846Z,12.20
2023-03-29T21:00:13.530Z,12.20
2023-03-29T21:02:40.568Z,12.20
2023-03-29T21:05:09.387Z,12.20
2023-03-29T21:07:36.460Z,12.10
2023-03-29T21:10:04.202Z,12.10
2023-03-29T21:12:31.477Z,12.20
2023-03-29T21:14:58.286Z,12.30
2023-03-29T21:17:26.178Z,12.20
2023-03-29T21:19:53.244Z,12.20
2023-03-29T21:22:20.000Z,12.20
2023-03-29T21:24:46.781Z,12.20
2023-03-29T21:27:13.541Z,12.30
2023-03-29T21:29:40.300Z,12.30
2023-03-29T21:32:08.518Z,12.30
2023-03-29T21:34:35.363Z,12.40
2023-03-29T21:37:05.083Z,12.50
2023-03-29T21:39:32.251Z,12.50
2023-03-29T21:41:59.539Z,12.50
2023-03-29T21:44:26.435Z,12.40
2023-03-29T21:46:53.659Z,12.40
2023-03-29T21:49:20.833Z,12.40
2023-03-29T21:51:47.624Z,12.40
2023-03-29T21:54:14.401Z,12.30
2023-03-29T21:56:41.363Z,12.30
2023-03-29T21:59:08.250Z,12.40
2023-03-29T22:01:35.013Z,12.40
2023-03-29T22:04:01.847Z,12.50
2023-03-29T22:06:28.569Z,12.50
2023-03-29T22:08:55.328Z,12.60
2023-03-29T22:11:23.294Z,12.60
2023-03-29T22:13:52.396Z,12.60
2023-03-29T22:16:19.278Z,12.60
2023-03-29T22:18:49.689Z,12.50
2023-03-29T22:21:24.003Z,12.60
2023-03-29T22:23:56.050Z,12.50
2023-03-29T22:26:27.476Z,12.50
2023-03-29T22:28:54.874Z,12.60
2023-03-29T22:31:23.931Z,12.60
2023-03-29T22:33:51.008Z,12.50
2023-03-29T22:36:19.008Z,12.40
2023-03-29T22:38:46.831Z,12.40
2023-03-29T22:41:14.456Z,12.40
2023-03-29T22:43:41.815Z,12.40
2023-03-29T22:46:10.740Z,12.40
2023-03-29T22:48:37.869Z,12.40
2023-03-29T22:51:05.749Z,12.40
2023-03-29T22:53:33.385Z,12.40
2023-03-29T22:56:00.259Z,12.40
2023-03-29T22:58:29.322Z,12.40
2023-03-29T23:00:57.167Z,12.40
2023-03-29T23:03:24.366Z,12.40
2023-03-29T23:05:56.395Z,12.40
2023-03-29T23:08:26.295Z,12.40
2023-03-29T23:10:53.190Z,12.40
2023-03-29T23:13:24.222Z,12.40
2023-03-29T23:15:52.638Z,12.40
2023-03-29T23:18:21.201Z,12.40
2023-03-29T23:20:53.182Z,12.50
2023-03-29T23:23:20.654Z,12.50
2023-03-29T23:25:48.926Z,12.50
2023-03-29T23:28:21.365Z,12.50
2023-03-29T23:31:17.906Z,12.40
2023-03-29T23:33:44.930Z,12.40
2023-03-29T23:36:14.641Z,12.40
2023-03-29T23:38:42.417Z,12.30
2023-03-29T23:41:10.890Z,12.30
2023-03-29T23:43:40.553Z,12.20
2023-03-29T23:46:16.005Z,12.30
2023-03-29T23:48:47.261Z,12.20
2023-03-29T23:51:14.130Z,12.20
2023-03-29T23:53:41.572Z,12.20
2023-03-29T23:56:09.140Z,12.20
2023-03-29T23:58:37.950Z,12.20
